sensor_id;sensor_type;location;lat;lon;timestamp;P1;durP1;ratioP1;P2;durP2;ratioP2
57311;SDS011;43154;50.966;18.316;2023-02-26T00:01:16;15.80;;;6.40;;
57311;SDS011;43154;50.966;18.316;2023-02-26T00:04:14;13.80;;;5.30;;
57311;SDS011;43154;50.966;18.316;2023-02-26T00:06:53;17.10;;;5.70;;
57311;SDS011;43154;50.966;18.316;2023-02-26T00:09:53;16.70;;;6.30;;
57311;SDS011;43154;50.966;18.316;2023-02-26T00:12:35;14.40;;;5.70;;
57311;SDS011;43154;50.966;18.316;2023-02-26T00:19:10;14.90;;;5.30;;
57311;SDS011;43154;50.966;18.316;2023-02-26T00:21:57;15.30;;;6.10;;
57311;SDS011;43154;50.966;18.316;2023-02-26T00:25:01;16.50;;;7.00;;
57311;SDS011;43154;50.966;18.316;2023-02-26T00:31:13;21.30;;;6.60;;
57311;SDS011;43154;50.966;18.316;2023-02-26T00:37:59;15.90;;;6.50;;
57311;SDS011;43154;50.966;18.316;2023-02-26T00:40:43;15.50;;;5.30;;
57311;SDS011;43154;50.966;18.316;2023-02-26T00:43:20;17.20;;;6.70;;
57311;SDS011;43154;50.966;18.316;2023-02-26T00:46:20;22.20;;;7.40;;
57311;SDS011;43154;50.966;18.316;2023-02-26T00:49:02;20.50;;;7.70;;
57311;SDS011;43154;50.966;18.316;2023-02-26T00:51:50;24.90;;;7.20;;
57311;SDS011;43154;50.966;18.316;2023-02-26T00:54:30;19.20;;;7.50;;
57311;SDS011;43154;50.966;18.316;2023-02-26T00:57:08;18.30;;;6.90;;
57311;SDS011;43154;50.966;18.316;2023-02-26T00:59:39;24.10;;;8.10;;
57311;SDS011;43154;50.966;18.316;2023-02-26T01:02:07;22.20;;;8.20;;
57311;SDS011;43154;50.966;18.316;2023-02-26T01:04:39;18.20;;;7.90;;
57311;SDS011;43154;50.966;18.316;2023-02-26T01:07:12;22.40;;;8.10;;
57311;SDS011;43154;50.966;18.316;2023-02-26T01:09:39;18.90;;;8.20;;
57311;SDS011;43154;50.966;18.316;2023-02-26T01:12:10;22.00;;;8.10;;
57311;SDS011;43154;50.966;18.316;2023-02-26T01:14:41;19.40;;;7.70;;
57311;SDS011;43154;50.966;18.316;2023-02-26T01:17:27;22.60;;;7.90;;
57311;SDS011;43154;50.966;18.316;2023-02-26T01:20:01;18.60;;;7.40;;
57311;SDS011;43154;50.966;18.316;2023-02-26T01:22:38;17.90;;;6.00;;
57311;SDS011;43154;50.966;18.316;2023-02-26T01:25:16;19.00;;;6.80;;
57311;SDS011;43154;50.966;18.316;2023-02-26T01:27:52;18.10;;;6.30;;
57311;SDS011;43154;50.966;18.316;2023-02-26T01:30:23;16.00;;;5.40;;
57311;SDS011;43154;50.966;18.316;2023-02-26T01:35:52;19.20;;;6.80;;
57311;SDS011;43154;50.966;18.316;2023-02-26T01:41:20;21.40;;;7.40;;
57311;SDS011;43154;50.966;18.316;2023-02-26T01:49:18;18.90;;;7.50;;
57311;SDS011;43154;50.966;18.316;2023-02-26T01:51:50;20.00;;;7.10;;
57311;SDS011;43154;50.966;18.316;2023-02-26T01:54:19;21.40;;;6.80;;
57311;SDS011;43154;50.966;18.316;2023-02-26T01:56:51;17.80;;;6.70;;
57311;SDS011;43154;50.966;18.316;2023-02-26T01:59:21;21.10;;;7.20;;
57311;SDS011;43154;50.966;18.316;2023-02-26T02:01:53;16.10;;;6.50;;
57311;SDS011;43154;50.966;18.316;2023-02-26T02:04:21;18.90;;;6.80;;
57311;SDS011;43154;50.966;18.316;2023-02-26T02:06:48;13.00;;;4.20;;
57311;SDS011;43154;50.966;18.316;2023-02-26T02:09:14;15.50;;;5.50;;
57311;SDS011;43154;50.966;18.316;2023-02-26T02:14:42;14.60;;;5.20;;
57311;SDS011;43154;50.966;18.316;2023-02-26T02:17:27;17.80;;;6.00;;
57311;SDS011;43154;50.966;18.316;2023-02-26T02:36:33;18.40;;;6.20;;
57311;SDS011;43154;50.966;18.316;2023-02-26T02:39:15;17.80;;;6.50;;
57311;SDS011;43154;50.966;18.316;2023-02-26T02:41:56;16.40;;;6.10;;
57311;SDS011;43154;50.966;18.316;2023-02-26T02:44:36;17.50;;;6.20;;
57311;SDS011;43154;50.966;18.316;2023-02-26T02:47:05;16.30;;;5.80;;
57311;SDS011;43154;50.966;18.316;2023-02-26T02:49:35;13.50;;;5.20;;
57311;SDS011;43154;50.966;18.316;2023-02-26T02:52:15;18.30;;;6.40;;
57311;SDS011;43154;50.966;18.316;2023-02-26T02:54:57;15.50;;;5.50;;
57311;SDS011;43154;50.966;18.316;2023-02-26T03:00:06;15.70;;;6.20;;
57311;SDS011;43154;50.966;18.316;2023-02-26T03:05:18;18.30;;;7.00;;
57311;SDS011;43154;50.966;18.316;2023-02-26T03:10:36;18.50;;;6.90;;
57311;SDS011;43154;50.966;18.316;2023-02-26T03:13:02;17.90;;;6.30;;
57311;SDS011;43154;50.966;18.316;2023-02-26T03:18:17;17.20;;;6.70;;
57311;SDS011;43154;50.966;18.316;2023-02-26T03:24:17;19.70;;;7.50;;
57311;SDS011;43154;50.966;18.316;2023-02-26T03:27:02;17.70;;;7.00;;
57311;SDS011;43154;50.966;18.316;2023-02-26T03:29:49;17.60;;;7.10;;
57311;SDS011;43154;50.966;18.316;2023-02-26T03:32:28;17.90;;;7.20;;
57311;SDS011;43154;50.966;18.316;2023-02-26T03:37:51;19.10;;;7.60;;
57311;SDS011;43154;50.966;18.316;2023-02-26T03:40:26;18.50;;;7.40;;
57311;SDS011;43154;50.966;18.316;2023-02-26T03:43:08;21.20;;;7.50;;
57311;SDS011;43154;50.966;18.316;2023-02-26T03:45:38;18.80;;;7.20;;
57311;SDS011;43154;50.966;18.316;2023-02-26T03:48:06;18.60;;;7.70;;
57311;SDS011;43154;50.966;18.316;2023-02-26T03:50:40;17.30;;;7.50;;
57311;SDS011;43154;50.966;18.316;2023-02-26T03:53:10;21.80;;;7.80;;
57311;SDS011;43154;50.966;18.316;2023-02-26T03:58:17;22.40;;;7.80;;
57311;SDS011;43154;50.966;18.316;2023-02-26T04:00:45;18.50;;;7.50;;
57311;SDS011;43154;50.966;18.316;2023-02-26T04:05:47;20.20;;;7.80;;
57311;SDS011;43154;50.966;18.316;2023-02-26T04:08:14;17.10;;;7.00;;
57311;SDS011;43154;50.966;18.316;2023-02-26T04:13:46;17.70;;;7.20;;
57311;SDS011;43154;50.966;18.316;2023-02-26T04:16:21;17.40;;;7.50;;
57311;SDS011;43154;50.966;18.316;2023-02-26T04:18:48;18.30;;;7.60;;
57311;SDS011;43154;50.966;18.316;2023-02-26T04:21:16;17.90;;;7.60;;
57311;SDS011;43154;50.966;18.316;2023-02-26T04:23:44;18.10;;;7.40;;
57311;SDS011;43154;50.966;18.316;2023-02-26T04:26:11;18.80;;;7.00;;
57311;SDS011;43154;50.966;18.316;2023-02-26T04:28:38;17.10;;;7.50;;
57311;SDS011;43154;50.966;18.316;2023-02-26T04:31:06;16.10;;;6.30;;
57311;SDS011;43154;50.966;18.316;2023-02-26T04:33:35;18.20;;;7.60;;
57311;SDS011;43154;50.966;18.316;2023-02-26T04:36:01;18.30;;;6.60;;
57311;SDS011;43154;50.966;18.316;2023-02-26T04:38:34;18.70;;;7.00;;
57311;SDS011;43154;50.966;18.316;2023-02-26T04:41:05;17.50;;;6.90;;
57311;SDS011;43154;50.966;18.316;2023-02-26T04:43:31;19.60;;;7.30;;
57311;SDS011;43154;50.966;18.316;2023-02-26T04:45:59;15.20;;;6.50;;
57311;SDS011;43154;50.966;18.316;2023-02-26T04:48:28;16.60;;;5.90;;
57311;SDS011;43154;50.966;18.316;2023-02-26T04:50:55;17.80;;;7.50;;
57311;SDS011;43154;50.966;18.316;2023-02-26T04:53:21;14.90;;;6.00;;
57311;SDS011;43154;50.966;18.316;2023-02-26T04:55:53;16.00;;;7.10;;
57311;SDS011;43154;50.966;18.316;2023-02-26T04:58:23;17.40;;;6.80;;
57311;SDS011;43154;50.966;18.316;2023-02-26T05:00:50;18.80;;;7.50;;
57311;SDS011;43154;50.966;18.316;2023-02-26T05:03:19;15.60;;;6.50;;
57311;SDS011;43154;50.966;18.316;2023-02-26T05:08:18;16.60;;;6.80;;
57311;SDS011;43154;50.966;18.316;2023-02-26T05:10:45;18.90;;;7.80;;
57311;SDS011;43154;50.966;18.316;2023-02-26T05:13:12;18.50;;;7.30;;
57311;SDS011;43154;50.966;18.316;2023-02-26T05:15:39;19.90;;;7.80;;
57311;SDS011;43154;50.966;18.316;2023-02-26T05:21:28;16.00;;;6.50;;
57311;SDS011;43154;50.966;18.316;2023-02-26T05:23:54;21.10;;;7.50;;
57311;SDS011;43154;50.966;18.316;2023-02-26T05:26:22;17.40;;;6.60;;
57311;SDS011;43154;50.966;18.316;2023-02-26T05:28:55;16.90;;;6.60;;
57311;SDS011;43154;50.966;18.316;2023-02-26T05:31:24;17.40;;;7.00;;
57311;SDS011;43154;50.966;18.316;2023-02-26T05:33:54;23.50;;;8.10;;
57311;SDS011;43154;50.966;18.316;2023-02-26T05:36:24;16.90;;;6.60;;
57311;SDS011;43154;50.966;18.316;2023-02-26T05:38:52;18.50;;;8.00;;
57311;SDS011;43154;50.966;18.316;2023-02-26T05:41:24;20.20;;;7.70;;
57311;SDS011;43154;50.966;18.316;2023-02-26T05:43:53;18.20;;;8.00;;
57311;SDS011;43154;50.966;18.316;2023-02-26T05:46:24;19.40;;;8.10;;
57311;SDS011;43154;50.966;18.316;2023-02-26T05:48:51;18.60;;;7.80;;
57311;SDS011;43154;50.966;18.316;2023-02-26T05:51:18;18.80;;;7.40;;
57311;SDS011;43154;50.966;18.316;2023-02-26T05:53:47;18.40;;;7.80;;
57311;SDS011;43154;50.966;18.316;2023-02-26T05:56:13;17.80;;;7.50;;
57311;SDS011;43154;50.966;18.316;2023-02-26T05:58:44;18.10;;;7.80;;
57311;SDS011;43154;50.966;18.316;2023-02-26T06:01:16;17.90;;;7.40;;
57311;SDS011;43154;50.966;18.316;2023-02-26T06:03:44;21.10;;;8.10;;
57311;SDS011;43154;50.966;18.316;2023-02-26T06:06:11;18.80;;;7.60;;
57311;SDS011;43154;50.966;18.316;2023-02-26T06:08:43;19.40;;;8.00;;
57311;SDS011;43154;50.966;18.316;2023-02-26T06:11:16;17.50;;;7.20;;
57311;SDS011;43154;50.966;18.316;2023-02-26T06:13:52;20.10;;;8.20;;
57311;SDS011;43154;50.966;18.316;2023-02-26T06:16:21;16.90;;;7.00;;
57311;SDS011;43154;50.966;18.316;2023-02-26T06:18:53;19.40;;;7.90;;
57311;SDS011;43154;50.966;18.316;2023-02-26T06:21:22;21.80;;;7.30;;
57311;SDS011;43154;50.966;18.316;2023-02-26T06:23:54;17.50;;;6.90;;
57311;SDS011;43154;50.966;18.316;2023-02-26T06:26:30;16.70;;;6.90;;
57311;SDS011;43154;50.966;18.316;2023-02-26T06:29:02;17.20;;;6.90;;
57311;SDS011;43154;50.966;18.316;2023-02-26T06:31:30;17.90;;;6.60;;
57311;SDS011;43154;50.966;18.316;2023-02-26T06:34:02;17.00;;;6.00;;
57311;SDS011;43154;50.966;18.316;2023-02-26T06:36:28;17.80;;;7.10;;
57311;SDS011;43154;50.966;18.316;2023-02-26T06:38:56;17.90;;;6.60;;
57311;SDS011;43154;50.966;18.316;2023-02-26T06:41:28;15.60;;;6.30;;
57311;SDS011;43154;50.966;18.316;2023-02-26T06:43:58;19.00;;;5.90;;
57311;SDS011;43154;50.966;18.316;2023-02-26T06:46:30;14.30;;;6.00;;
57311;SDS011;43154;50.966;18.316;2023-02-26T06:48:57;18.10;;;6.90;;
57311;SDS011;43154;50.966;18.316;2023-02-26T06:51:25;15.90;;;6.40;;
57311;SDS011;43154;50.966;18.316;2023-02-26T06:53:54;16.50;;;5.70;;
57311;SDS011;43154;50.966;18.316;2023-02-26T06:56:22;18.30;;;6.80;;
57311;SDS011;43154;50.966;18.316;2023-02-26T06:58:55;17.70;;;7.10;;
57311;SDS011;43154;50.966;18.316;2023-02-26T07:01:22;17.30;;;7.10;;
57311;SDS011;43154;50.966;18.316;2023-02-26T07:03:55;16.10;;;6.20;;
57311;SDS011;43154;50.966;18.316;2023-02-26T07:06:28;17.50;;;6.50;;
57311;SDS011;43154;50.966;18.316;2023-02-26T07:08:57;18.00;;;7.00;;
57311;SDS011;43154;50.966;18.316;2023-02-26T07:11:29;15.10;;;6.40;;
57311;SDS011;43154;50.966;18.316;2023-02-26T07:13:55;18.00;;;6.70;;
57311;SDS011;43154;50.966;18.316;2023-02-26T07:16:28;18.60;;;7.30;;
57311;SDS011;43154;50.966;18.316;2023-02-26T07:18:57;16.40;;;6.80;;
57311;SDS011;43154;50.966;18.316;2023-02-26T07:21:29;15.60;;;6.90;;
57311;SDS011;43154;50.966;18.316;2023-02-26T07:24:00;18.10;;;7.00;;
57311;SDS011;43154;50.966;18.316;2023-02-26T07:26:36;18.40;;;6.90;;
57311;SDS011;43154;50.966;18.316;2023-02-26T07:29:20;15.10;;;5.90;;
57311;SDS011;43154;50.966;18.316;2023-02-26T07:31:53;13.60;;;5.40;;
57311;SDS011;43154;50.966;18.316;2023-02-26T07:34:21;17.50;;;5.90;;
57311;SDS011;43154;50.966;18.316;2023-02-26T07:36:57;16.70;;;6.20;;
57311;SDS011;43154;50.966;18.316;2023-02-26T07:39:26;15.50;;;5.50;;
57311;SDS011;43154;50.966;18.316;2023-02-26T07:41:57;16.20;;;6.40;;
57311;SDS011;43154;50.966;18.316;2023-02-26T07:44:29;17.30;;;6.40;;
57311;SDS011;43154;50.966;18.316;2023-02-26T07:46:59;15.00;;;5.10;;
57311;SDS011;43154;50.966;18.316;2023-02-26T07:49:31;16.30;;;6.50;;
57311;SDS011;43154;50.966;18.316;2023-02-26T07:51:58;16.40;;;6.90;;
57311;SDS011;43154;50.966;18.316;2023-02-26T07:54:28;17.10;;;6.70;;
57311;SDS011;43154;50.966;18.316;2023-02-26T07:57:01;17.90;;;6.90;;
57311;SDS011;43154;50.966;18.316;2023-02-26T07:59:37;14.50;;;6.30;;
57311;SDS011;43154;50.966;18.316;2023-02-26T08:02:14;16.60;;;6.90;;
57311;SDS011;43154;50.966;18.316;2023-02-26T08:04:42;17.20;;;6.40;;
57311;SDS011;43154;50.966;18.316;2023-02-26T08:07:37;15.20;;;6.00;;
57311;SDS011;43154;50.966;18.316;2023-02-26T08:14:01;17.20;;;7.00;;
57311;SDS011;43154;50.966;18.316;2023-02-26T08:16:35;17.00;;;6.70;;
57311;SDS011;43154;50.966;18.316;2023-02-26T08:19:11;15.30;;;5.80;;
57311;SDS011;43154;50.966;18.316;2023-02-26T08:21:45;15.50;;;6.10;;
57311;SDS011;43154;50.966;18.316;2023-02-26T08:24:23;15.80;;;5.90;;
57311;SDS011;43154;50.966;18.316;2023-02-26T08:26:59;15.60;;;6.70;;
57311;SDS011;43154;50.966;18.316;2023-02-26T08:29:45;12.80;;;4.70;;
57311;SDS011;43154;50.966;18.316;2023-02-26T08:32:30;16.60;;;6.10;;
57311;SDS011;43154;50.966;18.316;2023-02-26T08:35:13;17.50;;;6.00;;
57311;SDS011;43154;50.966;18.316;2023-02-26T08:37:46;21.20;;;7.80;;
57311;SDS011;43154;50.966;18.316;2023-02-26T08:40:15;14.00;;;5.30;;
57311;SDS011;43154;50.966;18.316;2023-02-26T09:14:49;15.10;;;6.50;;
57311;SDS011;43154;50.966;18.316;2023-02-26T09:17:15;15.20;;;6.30;;
57311;SDS011;43154;50.966;18.316;2023-02-26T09:19:42;22.30;;;8.10;;
57311;SDS011;43154;50.966;18.316;2023-02-26T09:22:07;47.90;;;15.40;;
57311;SDS011;43154;50.966;18.316;2023-02-26T09:24:34;18.70;;;7.00;;
57311;SDS011;43154;50.966;18.316;2023-02-26T09:27:00;60.00;;;19.70;;
57311;SDS011;43154;50.966;18.316;2023-02-26T09:29:27;15.90;;;5.70;;
57311;SDS011;43154;50.966;18.316;2023-02-26T09:31:54;26.10;;;9.20;;
57311;SDS011;43154;50.966;18.316;2023-02-26T09:34:20;16.80;;;5.70;;
57311;SDS011;43154;50.966;18.316;2023-02-26T09:36:46;14.00;;;5.30;;
57311;SDS011;43154;50.966;18.316;2023-02-26T09:39:21;13.40;;;5.40;;
57311;SDS011;43154;50.966;18.316;2023-02-26T09:41:58;14.20;;;5.20;;
57311;SDS011;43154;50.966;18.316;2023-02-26T09:44:43;14.00;;;6.10;;
57311;SDS011;43154;50.966;18.316;2023-02-26T09:47:28;29.80;;;9.50;;
57311;SDS011;43154;50.966;18.316;2023-02-26T09:53:23;26.50;;;9.30;;
57311;SDS011;43154;50.966;18.316;2023-02-26T09:56:04;22.90;;;7.70;;
57311;SDS011;43154;50.966;18.316;2023-02-26T09:58:49;13.80;;;5.80;;
57311;SDS011;43154;50.966;18.316;2023-02-26T10:01:30;16.70;;;6.20;;
57311;SDS011;43154;50.966;18.316;2023-02-26T10:12:45;15.30;;;5.80;;
57311;SDS011;43154;50.966;18.316;2023-02-26T10:15:39;17.10;;;6.30;;
57311;SDS011;43154;50.966;18.316;2023-02-26T10:18:18;29.60;;;10.10;;
57311;SDS011;43154;50.966;18.316;2023-02-26T10:23:46;32.90;;;11.90;;
57311;SDS011;43154;50.966;18.316;2023-02-26T10:34:33;30.20;;;11.00;;
57311;SDS011;43154;50.966;18.316;2023-02-26T10:42:46;46.80;;;13.90;;
57311;SDS011;43154;50.966;18.316;2023-02-26T10:46:06;69.50;;;21.30;;
57311;SDS011;43154;50.966;18.316;2023-02-26T10:51:23;16.80;;;6.90;;
57311;SDS011;43154;50.966;18.316;2023-02-26T10:54:00;21.50;;;8.30;;
57311;SDS011;43154;50.966;18.316;2023-02-26T10:56:39;14.40;;;5.70;;
57311;SDS011;43154;50.966;18.316;2023-02-26T11:06:12;20.60;;;6.70;;
57311;SDS011;43154;50.966;18.316;2023-02-26T11:09:46;21.60;;;7.50;;
57311;SDS011;43154;50.966;18.316;2023-02-26T11:13:08;20.40;;;7.20;;
57311;SDS011;43154;50.966;18.316;2023-02-26T11:16:10;26.70;;;8.60;;
57311;SDS011;43154;50.966;18.316;2023-02-26T11:20:13;41.60;;;13.60;;
57311;SDS011;43154;50.966;18.316;2023-02-26T11:25:32;16.10;;;5.70;;
57311;SDS011;43154;50.966;18.316;2023-02-26T11:32:21;28.60;;;10.50;;
57311;SDS011;43154;50.966;18.316;2023-02-26T11:35:45;16.10;;;5.30;;
57311;SDS011;43154;50.966;18.316;2023-02-26T11:39:04;11.10;;;3.40;;
57311;SDS011;43154;50.966;18.316;2023-02-26T11:42:05;13.20;;;3.80;;
57311;SDS011;43154;50.966;18.316;2023-02-26T11:45:28;11.80;;;4.00;;
57311;SDS011;43154;50.966;18.316;2023-02-26T11:56:04;12.10;;;3.60;;
57311;SDS011;43154;50.966;18.316;2023-02-26T11:59:43;14.80;;;6.00;;
57311;SDS011;43154;50.966;18.316;2023-02-26T12:05:39;12.20;;;4.10;;
57311;SDS011;43154;50.966;18.316;2023-02-26T12:25:44;13.60;;;5.00;;
57311;SDS011;43154;50.966;18.316;2023-02-26T12:32:24;13.90;;;5.10;;
57311;SDS011;43154;50.966;18.316;2023-02-26T12:35:29;18.80;;;7.40;;
57311;SDS011;43154;50.966;18.316;2023-02-26T13:38:33;12.50;;;3.60;;
57311;SDS011;43154;50.966;18.316;2023-02-26T13:43:51;10.90;;;3.30;;
57311;SDS011;43154;50.966;18.316;2023-02-26T13:51:38;10.70;;;2.90;;
57311;SDS011;43154;50.966;18.316;2023-02-26T13:54:08;10.90;;;2.50;;
57311;SDS011;43154;50.966;18.316;2023-02-26T13:57:05;10.00;;;3.10;;
57311;SDS011;43154;50.966;18.316;2023-02-26T14:02:35;10.70;;;2.60;;
57311;SDS011;43154;50.966;18.316;2023-02-26T14:05:00;10.60;;;3.00;;
57311;SDS011;43154;50.966;18.316;2023-02-26T14:10:24;10.20;;;3.30;;
57311;SDS011;43154;50.966;18.316;2023-02-26T14:13:02;10.70;;;2.90;;
57311;SDS011;43154;50.966;18.316;2023-02-26T14:16:10;9.30;;;2.80;;
57311;SDS011;43154;50.966;18.316;2023-02-26T14:21:26;10.60;;;3.20;;
57311;SDS011;43154;50.966;18.316;2023-02-26T14:26:34;12.00;;;3.70;;
57311;SDS011;43154;50.966;18.316;2023-02-26T14:34:30;11.80;;;3.70;;
57311;SDS011;43154;50.966;18.316;2023-02-26T14:37:02;13.10;;;5.10;;
57311;SDS011;43154;50.966;18.316;2023-02-26T14:42:48;14.00;;;4.50;;
57311;SDS011;43154;50.966;18.316;2023-02-26T14:47:54;15.40;;;6.10;;
57311;SDS011;43154;50.966;18.316;2023-02-26T14:50:22;16.90;;;6.40;;
57311;SDS011;43154;50.966;18.316;2023-02-26T14:52:56;12.40;;;4.30;;
57311;SDS011;43154;50.966;18.316;2023-02-26T14:55:55;12.60;;;4.30;;
57311;SDS011;43154;50.966;18.316;2023-02-26T14:58:36;12.60;;;4.20;;
57311;SDS011;43154;50.966;18.316;2023-02-26T15:23:48;16.20;;;4.40;;
57311;SDS011;43154;50.966;18.316;2023-02-26T15:26:17;12.60;;;4.40;;
57311;SDS011;43154;50.966;18.316;2023-02-26T15:28:47;20.70;;;5.00;;
57311;SDS011;43154;50.966;18.316;2023-02-26T15:31:13;14.80;;;4.10;;
57311;SDS011;43154;50.966;18.316;2023-02-26T15:33:40;11.90;;;3.60;;
57311;SDS011;43154;50.966;18.316;2023-02-26T15:36:07;16.60;;;4.70;;
57311;SDS011;43154;50.966;18.316;2023-02-26T15:38:41;15.70;;;4.80;;
57311;SDS011;43154;50.966;18.316;2023-02-26T15:43:34;14.60;;;4.30;;
57311;SDS011;43154;50.966;18.316;2023-02-26T15:46:00;17.10;;;5.70;;
57311;SDS011;43154;50.966;18.316;2023-02-26T15:48:27;19.20;;;7.70;;
57311;SDS011;43154;50.966;18.316;2023-02-26T15:51:03;23.00;;;9.00;;
57311;SDS011;43154;50.966;18.316;2023-02-26T15:53:35;20.70;;;8.60;;
57311;SDS011;43154;50.966;18.316;2023-02-26T15:56:04;20.90;;;8.40;;
57311;SDS011;43154;50.966;18.316;2023-02-26T16:01:05;22.40;;;7.20;;
57311;SDS011;43154;50.966;18.316;2023-02-26T16:03:33;23.90;;;8.20;;
57311;SDS011;43154;50.966;18.316;2023-02-26T16:06:00;19.00;;;5.70;;
57311;SDS011;43154;50.966;18.316;2023-02-26T16:08:26;28.10;;;8.30;;
57311;SDS011;43154;50.966;18.316;2023-02-26T16:10:52;18.40;;;5.90;;
57311;SDS011;43154;50.966;18.316;2023-02-26T16:13:23;18.40;;;5.80;;
57311;SDS011;43154;50.966;18.316;2023-02-26T16:15:52;16.50;;;5.30;;
57311;SDS011;43154;50.966;18.316;2023-02-26T16:18:21;19.30;;;5.20;;
57311;SDS011;43154;50.966;18.316;2023-02-26T16:20:49;19.20;;;5.40;;
57311;SDS011;43154;50.966;18.316;2023-02-26T16:23:20;17.30;;;6.00;;
57311;SDS011;43154;50.966;18.316;2023-02-26T16:25:49;15.60;;;5.30;;
57311;SDS011;43154;50.966;18.316;2023-02-26T16:28:21;18.20;;;5.80;;
57311;SDS011;43154;50.966;18.316;2023-02-26T16:30:50;16.80;;;5.60;;
57311;SDS011;43154;50.966;18.316;2023-02-26T16:33:19;21.30;;;5.80;;
57311;SDS011;43154;50.966;18.316;2023-02-26T16:35:48;15.70;;;5.60;;
57311;SDS011;43154;50.966;18.316;2023-02-26T16:38:26;19.50;;;5.20;;
57311;SDS011;43154;50.966;18.316;2023-02-26T16:40:57;15.50;;;4.90;;
57311;SDS011;43154;50.966;18.316;2023-02-26T16:46:14;17.40;;;4.70;;
57311;SDS011;43154;50.966;18.316;2023-02-26T16:48:46;18.10;;;5.50;;
57311;SDS011;43154;50.966;18.316;2023-02-26T16:51:38;16.80;;;5.20;;
57311;SDS011;43154;50.966;18.316;2023-02-26T16:54:06;16.40;;;5.10;;
57311;SDS011;43154;50.966;18.316;2023-02-26T16:56:39;14.10;;;4.60;;
57311;SDS011;43154;50.966;18.316;2023-02-26T16:59:11;17.80;;;5.10;;
57311;SDS011;43154;50.966;18.316;2023-02-26T17:04:31;15.20;;;5.10;;
57311;SDS011;43154;50.966;18.316;2023-02-26T17:06:58;14.20;;;5.20;;
57311;SDS011;43154;50.966;18.316;2023-02-26T17:12:05;18.20;;;5.80;;
57311;SDS011;43154;50.966;18.316;2023-02-26T17:14:41;17.40;;;5.70;;
57311;SDS011;43154;50.966;18.316;2023-02-26T17:17:08;17.00;;;6.20;;
57311;SDS011;43154;50.966;18.316;2023-02-26T17:19:34;22.30;;;6.40;;
57311;SDS011;43154;50.966;18.316;2023-02-26T17:22:00;19.50;;;6.70;;
57311;SDS011;43154;50.966;18.316;2023-02-26T17:24:31;21.30;;;6.50;;
57311;SDS011;43154;50.966;18.316;2023-02-26T17:27:00;24.90;;;8.70;;
57311;SDS011;43154;50.966;18.316;2023-02-26T17:29:34;21.20;;;7.10;;
57311;SDS011;43154;50.966;18.316;2023-02-26T17:32:03;40.80;;;13.70;;
57311;SDS011;43154;50.966;18.316;2023-02-26T17:34:30;76.70;;;26.60;;
57311;SDS011;43154;50.966;18.316;2023-02-26T17:36:56;31.10;;;13.20;;
57311;SDS011;43154;50.966;18.316;2023-02-26T17:39:24;31.20;;;12.90;;
57311;SDS011;43154;50.966;18.316;2023-02-26T17:41:50;28.70;;;9.60;;
57311;SDS011;43154;50.966;18.316;2023-02-26T17:44:15;22.50;;;7.20;;
57311;SDS011;43154;50.966;18.316;2023-02-26T17:46:41;26.40;;;7.00;;
57311;SDS011;43154;50.966;18.316;2023-02-26T17:49:08;15.80;;;5.20;;
57311;SDS011;43154;50.966;18.316;2023-02-26T17:51:35;21.00;;;5.60;;
57311;SDS011;43154;50.966;18.316;2023-02-26T17:54:00;17.10;;;5.50;;
57311;SDS011;43154;50.966;18.316;2023-02-26T17:56:27;17.90;;;5.60;;
57311;SDS011;43154;50.966;18.316;2023-02-26T17:58:55;19.50;;;6.20;;
57311;SDS011;43154;50.966;18.316;2023-02-26T18:01:22;20.70;;;6.00;;
57311;SDS011;43154;50.966;18.316;2023-02-26T18:03:48;24.60;;;7.20;;
57311;SDS011;43154;50.966;18.316;2023-02-26T18:06:15;21.00;;;6.40;;
57311;SDS011;43154;50.966;18.316;2023-02-26T18:08:41;17.80;;;6.30;;
57311;SDS011;43154;50.966;18.316;2023-02-26T18:11:10;26.10;;;7.90;;
57311;SDS011;43154;50.966;18.316;2023-02-26T18:13:37;43.80;;;11.10;;
57311;SDS011;43154;50.966;18.316;2023-02-26T18:16:03;30.50;;;8.80;;
57311;SDS011;43154;50.966;18.316;2023-02-26T18:18:31;29.30;;;8.60;;
57311;SDS011;43154;50.966;18.316;2023-02-26T18:20:57;27.70;;;8.00;;
57311;SDS011;43154;50.966;18.316;2023-02-26T18:23:24;21.70;;;7.20;;
57311;SDS011;43154;50.966;18.316;2023-02-26T18:25:50;36.70;;;11.20;;
57311;SDS011;43154;50.966;18.316;2023-02-26T18:28:20;69.80;;;22.00;;
57311;SDS011;43154;50.966;18.316;2023-02-26T18:30:51;65.40;;;19.90;;
57311;SDS011;43154;50.966;18.316;2023-02-26T18:33:17;55.20;;;18.50;;
57311;SDS011;43154;50.966;18.316;2023-02-26T18:35:43;88.60;;;27.40;;
57311;SDS011;43154;50.966;18.316;2023-02-26T18:38:11;49.20;;;17.70;;
57311;SDS011;43154;50.966;18.316;2023-02-26T18:40:39;59.40;;;20.60;;
57311;SDS011;43154;50.966;18.316;2023-02-26T18:43:05;45.50;;;17.10;;
57311;SDS011;43154;50.966;18.316;2023-02-26T18:45:34;40.90;;;12.80;;
57311;SDS011;43154;50.966;18.316;2023-02-26T18:48:00;50.40;;;17.30;;
57311;SDS011;43154;50.966;18.316;2023-02-26T18:50:26;34.40;;;11.90;;
57311;SDS011;43154;50.966;18.316;2023-02-26T18:52:52;32.40;;;10.70;;
57311;SDS011;43154;50.966;18.316;2023-02-26T18:55:17;29.30;;;10.60;;
57311;SDS011;43154;50.966;18.316;2023-02-26T18:57:43;30.20;;;10.60;;
57311;SDS011;43154;50.966;18.316;2023-02-26T19:00:10;31.60;;;11.00;;
57311;SDS011;43154;50.966;18.316;2023-02-26T19:02:39;28.80;;;10.80;;
57311;SDS011;43154;50.966;18.316;2023-02-26T19:05:09;34.80;;;12.00;;
57311;SDS011;43154;50.966;18.316;2023-02-26T19:07:36;33.10;;;10.50;;
57311;SDS011;43154;50.966;18.316;2023-02-26T19:10:03;31.80;;;11.40;;
57311;SDS011;43154;50.966;18.316;2023-02-26T19:12:30;44.00;;;15.20;;
57311;SDS011;43154;50.966;18.316;2023-02-26T19:14:56;62.10;;;21.70;;
57311;SDS011;43154;50.966;18.316;2023-02-26T19:17:22;43.80;;;16.70;;
57311;SDS011;43154;50.966;18.316;2023-02-26T19:19:49;27.20;;;9.00;;
57311;SDS011;43154;50.966;18.316;2023-02-26T19:22:15;27.30;;;8.80;;
57311;SDS011;43154;50.966;18.316;2023-02-26T19:24:41;21.60;;;7.20;;
57311;SDS011;43154;50.966;18.316;2023-02-26T19:27:11;24.50;;;7.30;;
57311;SDS011;43154;50.966;18.316;2023-02-26T19:29:37;24.00;;;9.20;;
57311;SDS011;43154;50.966;18.316;2023-02-26T19:32:04;25.10;;;9.10;;
57311;SDS011;43154;50.966;18.316;2023-02-26T19:34:31;25.80;;;7.50;;
57311;SDS011;43154;50.966;18.316;2023-02-26T19:36:58;24.00;;;8.80;;
57311;SDS011;43154;50.966;18.316;2023-02-26T19:39:24;25.60;;;8.70;;
57311;SDS011;43154;50.966;18.316;2023-02-26T19:41:50;26.90;;;9.70;;
57311;SDS011;43154;50.966;18.316;2023-02-26T19:44:18;30.50;;;9.90;;
57311;SDS011;43154;50.966;18.316;2023-02-26T19:46:47;21.20;;;6.10;;
57311;SDS011;43154;50.966;18.316;2023-02-26T19:49:14;22.30;;;7.30;;
57311;SDS011;43154;50.966;18.316;2023-02-26T19:51:41;30.10;;;10.40;;
57311;SDS011;43154;50.966;18.316;2023-02-26T19:54:07;20.10;;;6.20;;
57311;SDS011;43154;50.966;18.316;2023-02-26T19:56:34;34.80;;;10.60;;
57311;SDS011;43154;50.966;18.316;2023-02-26T19:59:00;36.10;;;11.90;;
57311;SDS011;43154;50.966;18.316;2023-02-26T20:01:26;18.80;;;5.90;;
57311;SDS011;43154;50.966;18.316;2023-02-26T20:03:52;23.90;;;9.00;;
57311;SDS011;43154;50.966;18.316;2023-02-26T20:06:18;15.90;;;5.40;;
57311;SDS011;43154;50.966;18.316;2023-02-26T20:08:44;18.30;;;5.80;;
57311;SDS011;43154;50.966;18.316;2023-02-26T20:11:10;20.00;;;5.90;;